createdAt,value
2023-02-03T00:00:11.362Z,1.04
2023-02-03T00:02:38.913Z,1.07
2023-02-03T00:05:06.764Z,1.07
2023-02-03T00:07:36.153Z,1.12
2023-02-03T00:10:04.506Z,1.18
2023-02-03T00:12:32.168Z,1.15
2023-02-03T00:14:59.677Z,1.17
2023-02-03T00:17:27.024Z,1.14
2023-02-03T00:19:54.291Z,1.17
2023-02-03T00:22:21.548Z,1.15
2023-02-03T00:24:48.819Z,1.15
2023-02-03T00:27:16.213Z,1.12
2023-02-03T00:29:43.524Z,1.25
2023-02-03T00:32:10.885Z,1.30
2023-02-03T00:34:38.301Z,1.30
2023-02-03T00:37:05.662Z,1.19
2023-02-03T00:39:32.917Z,1.24
2023-02-03T00:42:00.210Z,1.15
2023-02-03T00:44:27.531Z,1.14
2023-02-03T00:46:54.819Z,1.11
2023-02-03T00:49:23.407Z,1.11
2023-02-03T00:51:51.636Z,1.13
2023-02-03T00:54:18.887Z,1.09
2023-02-03T00:56:46.240Z,1.19
2023-02-03T00:59:14.930Z,1.27
2023-02-03T01:01:42.851Z,1.13
2023-02-03T01:04:10.246Z,1.22
2023-02-03T01:06:37.632Z,1.05
2023-02-03T01:09:04.855Z,1.00
2023-02-03T01:11:33.532Z,0.94
2023-02-03T01:14:01.886Z,0.91
2023-02-03T01:16:31.246Z,0.92
2023-02-03T01:18:58.717Z,0.91
2023-02-03T01:21:28.079Z,0.88
2023-02-03T01:23:56.258Z,0.89
2023-02-03T01:26:24.528Z,0.92
2023-02-03T01:28:57.151Z,0.93
2023-02-03T01:31:37.234Z,1.03
2023-02-03T01:34:11.184Z,1.02
2023-02-03T01:36:38.546Z,0.92
2023-02-03T01:39:06.127Z,0.99
2023-02-03T01:41:36.588Z,1.04
2023-02-03T01:44:56.046Z,1.03
2023-02-03T01:47:29.338Z,0.92
2023-02-03T01:50:14.902Z,0.78
2023-02-03T01:52:51.048Z,0.80
2023-02-03T01:55:23.569Z,0.73
2023-02-03T01:58:06.000Z,0.81
2023-02-03T02:00:33.294Z,0.80
2023-02-03T02:03:04.659Z,0.92
2023-02-03T02:05:39.464Z,0.74
2023-02-03T02:08:09.023Z,0.82
2023-02-03T02:10:36.427Z,0.75
2023-02-03T02:13:04.949Z,0.88
2023-02-03T02:15:58.274Z,0.88
2023-02-03T02:18:34.815Z,0.85
2023-02-03T02:21:10.805Z,0.76
2023-02-03T02:24:10.048Z,0.66
2023-02-03T02:27:09.939Z,0.62
2023-02-03T02:29:43.170Z,0.57
2023-02-03T02:32:39.960Z,0.61
2023-02-03T02:35:20.628Z,0.65
2023-02-03T02:38:11.517Z,0.68
2023-02-03T02:41:03.397Z,0.81
2023-02-03T02:43:36.179Z,0.84
2023-02-03T02:46:12.663Z,0.81
2023-02-03T02:49:18.486Z,0.79
2023-02-03T02:51:48.924Z,0.90
2023-02-03T02:54:25.516Z,0.92
2023-02-03T02:56:56.738Z,1.00
2023-02-03T02:59:24.650Z,0.97
2023-02-03T03:01:52.156Z,0.98
2023-02-03T03:04:24.617Z,1.06
2023-02-03T03:07:04.757Z,1.00
2023-02-03T03:09:54.522Z,1.23
2023-02-03T03:12:26.522Z,1.36
2023-02-03T03:15:08.145Z,1.33
2023-02-03T03:17:43.887Z,1.52
2023-02-03T03:20:20.107Z,1.65
2023-02-03T03:22:54.939Z,1.73
2023-02-03T03:25:29.983Z,1.81
2023-02-03T03:28:05.931Z,1.89
2023-02-03T03:30:36.868Z,1.93
2023-02-03T03:33:05.738Z,1.98
2023-02-03T03:36:01.382Z,2.02
2023-02-03T03:38:43.275Z,1.98
2023-02-03T03:41:22.288Z,2.06
2023-02-03T03:43:51.293Z,2.16
2023-02-03T03:46:29.119Z,2.24
2023-02-03T03:49:01.692Z,2.35
2023-02-03T03:51:34.581Z,2.45
2023-02-03T03:54:07.340Z,2.53
2023-02-03T03:56:41.597Z,2.62
2023-02-03T03:59:12.182Z,2.74
2023-02-03T04:01:41.148Z,2.83
2023-02-03T04:04:10.994Z,2.90
2023-02-03T04:06:39.742Z,2.96
2023-02-03T04:09:07.298Z,3.00
2023-02-03T04:11:53.175Z,3.13
2023-02-03T04:14:20.734Z,3.14
2023-02-03T04:16:47.978Z,3.20
2023-02-03T04:19:15.472Z,3.31
2023-02-03T04:21:42.795Z,3.37
2023-02-03T04:24:10.218Z,3.34
2023-02-03T04:26:37.626Z,3.39
2023-02-03T04:29:04.902Z,3.43
2023-02-03T04:31:32.710Z,3.47
2023-02-03T04:33:59.959Z,3.51
2023-02-03T04:36:27.385Z,3.53
2023-02-03T04:38:54.758Z,3.57
2023-02-03T04:41:22.069Z,3.67
2023-02-03T04:43:49.452Z,3.65
2023-02-03T04:46:18.271Z,3.71
2023-02-03T04:48:45.572Z,3.68
2023-02-03T04:51:12.844Z,3.72
2023-02-03T04:53:40.258Z,3.74
2023-02-03T04:56:07.904Z,3.74
2023-02-03T04:58:37.056Z,3.78
2023-02-03T05:01:09.275Z,3.78
2023-02-03T05:03:37.411Z,3.76
2023-02-03T05:06:05.671Z,3.78
2023-02-03T05:08:33.024Z,3.82
2023-02-03T05:11:04.718Z,3.86
2023-02-03T05:13:33.227Z,3.88
2023-02-03T05:16:00.691Z,3.91
2023-02-03T05:18:27.997Z,3.89
2023-02-03T05:20:55.398Z,3.87
2023-02-03T05:23:22.749Z,3.83
2023-02-03T05:25:50.481Z,3.81
2023-02-03T05:28:17.890Z,3.86
2023-02-03T05:30:45.361Z,3.86
2023-02-03T05:33:12.612Z,3.89
2023-02-03T05:35:39.926Z,3.88
2023-02-03T05:38:07.473Z,3.92
2023-02-03T05:40:53.622Z,3.93
2023-02-03T05:43:20.880Z,4.01
2023-02-03T05:45:48.229Z,3.96
2023-02-03T05:48:15.507Z,3.97
2023-02-03T05:50:43.046Z,4.00
2023-02-03T05:53:10.401Z,4.02
2023-02-03T05:55:38.103Z,4.02
2023-02-03T05:58:05.513Z,4.05
2023-02-03T06:00:32.947Z,4.05
2023-02-03T06:03:04.738Z,4.04
2023-02-03T06:05:35.025Z,4.06
2023-02-03T06:08:02.422Z,4.05
2023-02-03T06:10:29.916Z,4.03
2023-02-03T06:12:57.444Z,4.12
2023-02-03T06:15:24.731Z,4.13
2023-02-03T06:17:51.991Z,4.13
2023-02-03T06:20:20.615Z,4.16
2023-02-03T06:22:47.870Z,4.19
2023-02-03T06:25:15.193Z,4.18
2023-02-03T06:27:42.710Z,4.17
2023-02-03T06:30:11.457Z,4.20
2023-02-03T06:32:38.915Z,4.23
2023-02-03T06:35:06.414Z,4.27
2023-02-03T06:37:33.756Z,4.30
2023-02-03T06:40:01.874Z,4.32
2023-02-03T06:42:29.163Z,4.37
2023-02-03T06:44:56.558Z,4.41
2023-02-03T06:47:24.257Z,4.38
2023-02-03T06:49:52.388Z,4.37
2023-02-03T06:52:20.016Z,4.35
2023-02-03T06:54:47.285Z,4.29
2023-02-03T06:57:14.693Z,4.33
2023-02-03T06:59:41.987Z,4.37
2023-02-03T07:02:11.890Z,4.34
2023-02-03T07:04:39.299Z,4.33
2023-02-03T07:07:06.555Z,4.32
2023-02-03T07:09:34.175Z,4.32
2023-02-03T07:12:01.468Z,4.28
2023-02-03T07:14:28.808Z,4.35
2023-02-03T07:16:56.123Z,4.37
2023-02-03T07:19:23.350Z,4.36
2023-02-03T07:21:50.636Z,4.44
2023-02-03T07:24:18.029Z,4.50
2023-02-03T07:26:45.642Z,4.47
2023-02-03T07:29:13.011Z,4.49
2023-02-03T07:31:40.507Z,4.53
2023-02-03T07:34:07.753Z,4.59
2023-02-03T07:36:35.367Z,4.62
2023-02-03T07:39:02.781Z,4.59
2023-02-03T07:41:35.059Z,4.56
2023-02-03T07:44:05.117Z,4.54
2023-02-03T07:46:32.621Z,4.60
2023-02-03T07:49:00.021Z,4.60
2023-02-03T07:51:27.546Z,4.52
2023-02-03T07:53:56.896Z,4.49
2023-02-03T07:56:24.241Z,4.46
2023-02-03T07:58:54.733Z,4.47
2023-02-03T08:01:22.372Z,4.42
2023-02-03T08:03:49.684Z,4.39
2023-02-03T08:06:17.009Z,4.40
2023-02-03T08:08:44.929Z,4.37
2023-02-03T08:11:12.333Z,4.34
2023-02-03T08:13:39.509Z,4.35
2023-02-03T08:16:07.595Z,4.35
2023-02-03T08:18:34.894Z,4.39
2023-02-03T08:21:04.187Z,4.35
2023-02-03T08:23:31.663Z,4.34
2023-02-03T08:25:58.999Z,4.35
2023-02-03T08:28:26.772Z,4.37
2023-02-03T08:30:54.188Z,4.32
2023-02-03T08:33:21.386Z,4.29
2023-02-03T08:35:50.142Z,4.29
2023-02-03T08:38:17.783Z,4.29
2023-02-03T08:40:45.151Z,4.25
2023-02-03T08:43:12.477Z,4.21
2023-02-03T08:45:40.867Z,4.24
2023-02-03T08:48:08.821Z,4.21
2023-02-03T08:50:36.446Z,4.20
2023-02-03T08:53:03.726Z,4.19
2023-02-03T08:55:31.302Z,4.16
2023-02-03T08:57:58.567Z,4.19
2023-02-03T09:00:26.963Z,4.16
2023-02-03T09:02:54.412Z,4.14
2023-02-03T09:05:21.832Z,4.16
2023-02-03T09:07:49.107Z,4.14
2023-02-03T09:10:16.544Z,4.17
2023-02-03T09:12:43.806Z,4.16
2023-02-03T09:15:11.280Z,4.14
2023-02-03T09:17:38.626Z,4.13
2023-02-03T09:20:06.574Z,4.13
2023-02-03T09:22:33.893Z,4.13
2023-02-03T09:25:01.636Z,4.14
2023-02-03T09:27:28.984Z,4.15
2023-02-03T09:29:58.443Z,4.17
2023-02-03T09:32:25.741Z,4.16
2023-02-03T09:34:56.069Z,4.20
2023-02-03T09:37:23.852Z,4.22
2023-02-03T09:39:51.267Z,4.22
2023-02-03T09:43:00.044Z,4.22
2023-02-03T09:45:29.935Z,4.20
2023-02-03T09:48:22.980Z,4.20
2023-02-03T09:50:51.806Z,4.20
2023-02-03T09:53:39.533Z,4.20
2023-02-03T09:56:06.854Z,4.21
2023-02-03T09:58:34.589Z,4.24
2023-02-03T10:01:06.704Z,4.30
2023-02-03T10:03:52.861Z,4.35
2023-02-03T10:06:42.002Z,4.43
2023-02-03T10:09:34.833Z,4.47
2023-02-03T10:12:26.854Z,4.53
2023-02-03T10:15:12.801Z,4.60
2023-02-03T10:17:54.649Z,4.58
2023-02-03T10:20:52.093Z,4.53
2023-02-03T10:23:39.059Z,4.51
2023-02-03T10:26:13.028Z,4.55
2023-02-03T10:28:48.155Z,4.58
2023-02-03T10:31:20.908Z,4.58
2023-02-03T10:33:55.386Z,4.56
2023-02-03T10:36:31.087Z,4.59
2023-02-03T10:39:22.180Z,4.64
2023-02-03T10:41:49.611Z,4.64
2023-02-03T10:44:17.547Z,4.65
2023-02-03T10:46:45.648Z,4.71
2023-02-03T10:49:19.151Z,4.80
2023-02-03T10:51:56.447Z,4.82
2023-02-03T10:54:35.593Z,4.91
2023-02-03T10:57:06.715Z,4.92
2023-02-03T10:59:40.801Z,4.98
2023-02-03T11:02:11.244Z,5.05
2023-02-03T11:04:38.696Z,5.13
2023-02-03T11:07:23.399Z,5.22
2023-02-03T11:09:50.903Z,5.17
2023-02-03T11:12:21.457Z,5.18
2023-02-03T11:14:53.312Z,5.23
2023-02-03T11:17:27.345Z,5.26
2023-02-03T11:20:01.078Z,5.36
2023-02-03T11:22:32.171Z,5.27
2023-02-03T11:25:01.881Z,5.35
2023-02-03T11:27:33.241Z,5.39
2023-02-03T11:30:24.335Z,5.38
2023-02-03T11:32:52.773Z,5.38
2023-02-03T11:35:25.858Z,5.36
2023-02-03T11:37:57.828Z,5.33
2023-02-03T11:40:34.117Z,5.32
2023-02-03T11:43:31.652Z,5.33
2023-02-03T11:46:03.893Z,5.32
2023-02-03T11:48:33.316Z,5.27
2023-02-03T11:51:31.762Z,5.24
2023-02-03T11:54:29.830Z,5.26
2023-02-03T11:57:09.680Z,5.33
2023-02-03T12:00:02.457Z,5.34
2023-02-03T12:02:44.804Z,5.36
2023-02-03T12:05:34.268Z,5.43
2023-02-03T12:08:27.229Z,5.56
2023-02-03T12:11:03.273Z,5.55
2023-02-03T12:13:36.982Z,5.52
2023-02-03T12:16:41.916Z,5.47
2023-02-03T12:19:36.688Z,5.51
2023-02-03T12:22:09.896Z,5.52
2023-02-03T12:24:53.307Z,5.53
2023-02-03T12:27:46.372Z,5.53
2023-02-03T12:30:32.897Z,5.56
2023-02-03T12:33:15.864Z,5.56
2023-02-03T12:35:56.329Z,5.64
2023-02-03T12:38:35.153Z,5.65
2023-02-03T12:41:09.977Z,5.65
2023-02-03T12:43:49.511Z,5.72
2023-02-03T12:46:22.913Z,5.74
2023-02-03T12:49:21.332Z,5.89
2023-02-03T12:51:51.217Z,5.89
2023-02-03T12:54:46.002Z,5.91
2023-02-03T12:57:19.992Z,5.88
2023-02-03T13:00:13.862Z,5.79
2023-02-03T13:03:00.720Z,5.64
2023-02-03T13:05:41.242Z,5.54
2023-02-03T13:08:30.179Z,5.41
2023-02-03T13:11:24.422Z,5.31
2023-02-03T13:13:58.788Z,4.74
2023-02-03T13:16:33.294Z,4.58
2023-02-03T13:19:07.188Z,4.45
2023-02-03T13:21:34.516Z,4.39
2023-02-03T13:24:04.589Z,4.41
2023-02-03T13:26:50.228Z,4.57
2023-02-03T13:29:38.779Z,4.61
2023-02-03T13:32:15.253Z,4.64
2023-02-03T13:35:01.235Z,4.68
2023-02-03T13:37:58.955Z,4.78
2023-02-03T13:40:40.846Z,4.90
2023-02-03T13:43:35.861Z,4.97
2023-02-03T13:46:08.829Z,5.01
2023-02-03T13:48:37.528Z,5.05
2023-02-03T13:51:13.268Z,4.99
2023-02-03T13:53:44.192Z,5.09
2023-02-03T13:56:24.983Z,5.04
2023-02-03T13:59:09.497Z,5.01
2023-02-03T14:01:39.931Z,5.02
2023-02-03T14:04:35.303Z,4.95
2023-02-03T14:07:04.450Z,4.97
2023-02-03T14:09:32.133Z,5.03
2023-02-03T14:12:15.274Z,5.01
2023-02-03T14:14:52.783Z,4.97
2023-02-03T14:17:35.891Z,4.98
2023-02-03T14:20:25.712Z,4.97
2023-02-03T14:22:56.957Z,4.90
2023-02-03T14:25:27.342Z,4.90
2023-02-03T14:28:05.805Z,4.83
2023-02-03T14:30:33.711Z,4.72
2023-02-03T14:33:02.892Z,4.86
2023-02-03T14:35:34.805Z,4.76
2023-02-03T14:38:05.044Z,4.70
2023-02-03T14:40:55.185Z,4.63
2023-02-03T14:43:41.283Z,4.61
2023-02-03T14:46:15.181Z,4.68
2023-02-03T14:49:17.886Z,4.64
2023-02-03T14:52:04.012Z,4.58
2023-02-03T14:54:58.042Z,4.56
2023-02-03T14:57:25.354Z,4.54
2023-02-03T15:00:13.940Z,4.48
2023-02-03T15:03:07.598Z,4.46
2023-02-03T15:05:41.406Z,4.45
2023-02-03T15:08:34.201Z,4.53
2023-02-03T15:11:25.570Z,4.44
2023-02-03T15:13:55.008Z,4.46
2023-02-03T15:16:25.348Z,4.41
2023-02-03T15:19:07.534Z,4.32
2023-02-03T15:21:42.312Z,4.32
2023-02-03T15:24:23.072Z,4.23
2023-02-03T15:26:53.786Z,4.32
2023-02-03T15:29:34.369Z,4.38
2023-02-03T15:32:12.708Z,4.42
2023-02-03T15:34:45.122Z,4.36
2023-02-03T15:37:36.894Z,4.32
2023-02-03T15:40:12.337Z,4.31
2023-02-03T15:43:22.373Z,4.30
2023-02-03T15:46:11.854Z,4.23
2023-02-03T15:48:45.696Z,4.29
2023-02-03T15:51:19.339Z,4.44
2023-02-03T15:53:55.640Z,4.50
2023-02-03T15:56:55.621Z,4.54
2023-02-03T15:59:29.937Z,4.50
2023-02-03T16:01:57.629Z,4.50
2023-02-03T16:04:26.185Z,4.55
2023-02-03T16:06:55.998Z,4.61
2023-02-03T16:09:34.053Z,4.68
2023-02-03T16:12:19.592Z,4.62
2023-02-03T16:14:47.361Z,4.61
2023-02-03T16:17:31.711Z,4.67
2023-02-03T16:20:11.408Z,4.66
2023-02-03T16:22:46.055Z,4.68
2023-02-03T16:25:25.943Z,4.65
2023-02-03T16:28:32.326Z,4.75
2023-02-03T16:31:29.562Z,4.71
2023-02-03T16:34:15.665Z,4.78
2023-02-03T16:37:03.381Z,4.80
2023-02-03T16:39:49.352Z,4.78
2023-02-03T16:42:40.122Z,4.75
2023-02-03T16:45:33.669Z,4.77
2023-02-03T16:48:20.998Z,4.76
2023-02-03T16:50:56.343Z,4.80
2023-02-03T16:53:27.379Z,4.73
2023-02-03T16:55:57.298Z,4.78
2023-02-03T16:58:25.117Z,4.82
2023-02-03T17:00:53.367Z,4.79
2023-02-03T17:03:24.213Z,4.83
2023-02-03T17:05:52.492Z,4.84
2023-02-03T17:08:23.288Z,4.77
2023-02-03T17:10:51.523Z,4.76
2023-02-03T17:13:21.551Z,4.73
2023-02-03T17:15:52.859Z,4.67
2023-02-03T17:18:20.696Z,4.73
2023-02-03T17:20:47.936Z,4.75
2023-02-03T17:23:19.502Z,4.77
2023-02-03T17:25:49.444Z,4.68
2023-02-03T17:28:17.795Z,4.72
2023-02-03T17:30:45.559Z,4.77
2023-02-03T17:33:13.218Z,4.70
2023-02-03T17:35:45.545Z,4.73
2023-02-03T17:38:14.832Z,4.68
2023-02-03T17:54:35.693Z,4.83
2023-02-03T17:57:03.179Z,4.86
2023-02-03T17:59:30.533Z,4.85
2023-02-03T18:01:58.024Z,4.86
2023-02-03T18:04:26.213Z,4.84
2023-02-03T18:06:54.582Z,4.80
2023-02-03T18:09:21.960Z,4.83
2023-02-03T18:11:49.553Z,4.84
2023-02-03T18:14:18.237Z,4.80
2023-02-03T18:16:45.937Z,4.86
2023-02-03T18:19:15.897Z,4.86
2023-02-03T18:21:44.866Z,4.78
2023-02-03T18:24:14.115Z,4.76
2023-02-03T18:26:51.244Z,4.73
2023-02-03T18:29:19.464Z,4.62
2023-02-03T18:31:48.147Z,4.63
2023-02-03T18:34:16.426Z,4.64
2023-02-03T18:36:44.497Z,4.64
2023-02-03T18:39:12.758Z,4.54
2023-02-03T18:41:40.636Z,4.57
2023-02-03T18:44:08.002Z,4.55
2023-02-03T18:46:35.655Z,4.51
2023-02-03T18:49:03.173Z,4.55
2023-02-03T18:51:30.508Z,4.59
2023-02-03T18:53:59.381Z,4.50
2023-02-03T18:56:35.093Z,4.45
2023-02-03T18:59:08.846Z,4.51
2023-02-03T19:01:37.005Z,4.45
2023-02-03T19:04:04.910Z,4.24
2023-02-03T19:06:33.055Z,4.11
2023-02-03T19:09:01.055Z,4.11
2023-02-03T19:11:28.904Z,4.22
2023-02-03T19:13:56.597Z,4.26
2023-02-03T19:16:24.154Z,4.24
2023-02-03T19:18:51.793Z,4.34
2023-02-03T19:21:19.343Z,4.40
2023-02-03T19:23:46.777Z,4.38
2023-02-03T19:26:14.379Z,4.40
2023-02-03T19:28:41.937Z,4.37
2023-02-03T19:31:13.328Z,4.45
2023-02-03T19:33:41.240Z,4.39
2023-02-03T19:36:09.815Z,4.31
2023-02-03T19:38:37.399Z,4.40
2023-02-03T19:41:04.851Z,4.39
2023-02-03T19:43:32.270Z,4.32
2023-02-03T19:46:00.228Z,4.27
2023-02-03T19:48:27.706Z,4.21
2023-02-03T19:50:55.020Z,4.11
2023-02-03T19:53:24.388Z,4.03
2023-02-03T19:55:52.489Z,4.00
2023-02-03T19:58:19.896Z,3.93
2023-02-03T20:00:47.256Z,3.94
2023-02-03T20:03:14.678Z,3.93
2023-02-03T20:05:42.187Z,3.89
2023-02-03T20:08:13.194Z,3.88
2023-02-03T20:10:42.434Z,3.80
2023-02-03T20:13:10.979Z,3.83
2023-02-03T20:15:38.661Z,3.79
2023-02-03T20:18:07.021Z,3.78
2023-02-03T20:20:35.438Z,3.73
2023-02-03T20:23:03.050Z,3.71
2023-02-03T20:25:30.821Z,3.67
2023-02-03T20:27:59.829Z,3.64
2023-02-03T20:30:27.490Z,3.59
2023-02-03T20:32:56.330Z,3.58
2023-02-03T20:35:26.362Z,3.54
2023-02-03T20:37:54.119Z,3.44
2023-02-03T20:40:23.667Z,3.35
2023-02-03T20:42:53.434Z,3.24
2023-02-03T20:45:23.437Z,3.20
2023-02-03T20:47:51.447Z,3.18
2023-02-03T20:50:22.627Z,3.20
2023-02-03T20:52:53.301Z,3.27
2023-02-03T20:55:22.920Z,3.30
2023-02-03T20:57:54.306Z,3.36
2023-02-03T21:00:26.452Z,3.44
2023-02-03T21:03:12.502Z,3.53
2023-02-03T21:05:42.578Z,3.54
2023-02-03T21:08:17.540Z,3.51
2023-02-03T21:10:46.900Z,3.43
2023-02-03T21:13:27.457Z,3.36
2023-02-03T21:15:57.405Z,3.35
2023-02-03T21:18:47.745Z,3.29
2023-02-03T21:21:20.106Z,3.33
2023-02-03T21:23:47.915Z,3.29
2023-02-03T21:26:16.834Z,3.27
2023-02-03T21:28:44.526Z,3.22
2023-02-03T21:31:32.675Z,3.25
2023-02-03T21:34:03.347Z,3.24
2023-02-03T21:36:35.118Z,3.19
2023-02-03T21:39:02.796Z,3.19
2023-02-03T21:41:33.514Z,3.17
2023-02-03T21:44:02.210Z,3.17
2023-02-03T21:46:33.182Z,3.18
2023-02-03T21:49:02.384Z,3.11
2023-02-03T21:51:32.038Z,3.06
2023-02-03T21:54:17.055Z,3.09
2023-02-03T21:56:45.677Z,3.09
2023-02-03T21:59:26.250Z,3.07
2023-02-03T22:01:54.041Z,3.07
2023-02-03T22:04:21.545Z,3.11
2023-02-03T22:06:50.680Z,3.10
2023-02-03T22:09:23.476Z,3.09
2023-02-03T22:11:51.799Z,3.06
2023-02-03T22:14:23.871Z,3.01
2023-02-03T22:16:51.321Z,2.97
2023-02-03T22:19:18.783Z,2.93
2023-02-03T22:21:47.818Z,2.88
2023-02-03T22:24:15.620Z,2.87
2023-02-03T22:26:43.260Z,2.84
2023-02-03T22:29:10.644Z,2.80
2023-02-03T22:31:38.540Z,2.78
2023-02-03T22:34:05.816Z,2.76
2023-02-03T22:36:33.167Z,2.75
2023-02-03T22:39:00.583Z,2.71
2023-02-03T22:41:27.942Z,2.74
2023-02-03T22:43:56.454Z,2.72
2023-02-03T22:46:24.068Z,2.71
2023-02-03T22:48:51.625Z,2.71
2023-02-03T22:51:19.486Z,2.70
2023-02-03T22:53:46.883Z,2.67
2023-02-03T22:56:14.616Z,2.68
2023-02-03T22:58:42.228Z,2.67
2023-02-03T23:01:09.821Z,2.67
2023-02-03T23:03:37.328Z,2.64
2023-02-03T23:06:04.744Z,2.67
2023-02-03T23:08:32.463Z,2.68
2023-02-03T23:10:59.899Z,2.67
2023-02-03T23:13:28.412Z,2.67
2023-02-03T23:15:56.088Z,2.67
2023-02-03T23:18:23.637Z,2.68
2023-02-03T23:20:51.292Z,2.66
2023-02-03T23:23:18.681Z,2.65
2023-02-03T23:25:46.253Z,2.68
2023-02-03T23:28:13.646Z,2.65
2023-02-03T23:30:41.006Z,2.66
2023-02-03T23:33:08.372Z,2.67
2023-02-03T23:35:47.664Z,2.68
2023-02-03T23:38:16.938Z,2.71
2023-02-03T23:40:44.637Z,2.71
2023-02-03T23:43:11.995Z,2.72
2023-02-03T23:45:39.837Z,2.72
2023-02-03T23:48:07.675Z,2.68
2023-02-03T23:50:35.421Z,2.50
2023-02-03T23:53:03.693Z,2.32
2023-02-03T23:55:33.400Z,2.13
2023-02-03T23:58:00.711Z,2.08
